Time;durP1;ratioP1;P1;durP2;ratioP2;P2;SDS_P1;SDS_P2;PMS_P1;PMS_P2;Temp;Humidity;BMP_temperature;BMP_pressure;BME280_temperature;BME280_humidity;BME280_pressure;Samples;Min_cycle;Max_cycle;Signal;HPM_P1;HPM_P2
2022/02/08 00:02:25;;;;;;;0.20;0.20;;;;;;;4.36;100.00;101659.81;5010182;28;20535;-54
2022/02/08 00:04:51;;;;;;;0.20;0.10;;;;;;;4.45;100.00;101654.72;5035073;28;20509;-54
2022/02/08 00:07:18;;;;;;;0.20;0.10;;;;;;;4.43;100.00;101660.84;5034387;28;20554;-54
2022/02/08 00:09:44;;;;;;;0.83;0.83;;;;;;;4.64;100.00;101650.66;5020411;28;20487;-54
2022/02/08 00:12:12;;;;;;;0.20;0.10;;;;;;;4.60;100.00;101645.34;5014911;28;20448;-54
2022/02/08 00:14:39;;;;;;;0.20;0.10;;;;;;;4.53;100.00;101646.09;5027863;28;20535;-54
2022/02/08 00:17:05;;;;;;;0.20;0.10;;;;;;;4.59;100.00;101659.38;5014553;28;21047;-54
2022/02/08 00:19:32;;;;;;;0.20;0.10;;;;;;;4.56;100.00;101649.66;5028994;28;20476;-54
2022/02/08 00:21:59;;;;;;;0.20;0.10;;;;;;;4.64;100.00;101650.66;5026193;28;20553;-54
2022/02/08 00:24:26;;;;;;;0.20;0.10;;;;;;;4.72;100.00;101653.44;5012954;28;20532;-55
2022/02/08 00:26:53;;;;;;;0.20;0.10;;;;;;;4.67;100.00;101648.13;5003146;28;20556;-54
2022/02/08 00:29:21;;;;;;;0.20;0.10;;;;;;;4.68;100.00;101651.63;5025351;28;20488;-54
2022/02/08 00:31:48;;;;;;;0.20;0.10;;;;;;;4.64;100.00;101641.88;5016505;28;20531;-54
2022/02/08 00:34:14;;;;;;;0.20;0.20;;;;;;;4.61;100.00;101639.22;5020788;28;20483;-55
2022/02/08 00:36:41;;;;;;;0.20;0.20;;;;;;;4.61;100.00;101639.22;5024642;28;20883;-55
2022/02/08 00:39:08;;;;;;;0.20;0.10;;;;;;;4.42;100.00;101640.63;5014155;28;20898;-54
2022/02/08 00:41:37;;;;;;;0.20;0.20;;;;;;;4.44;100.00;101639.81;5023307;28;20483;-54
2022/02/08 00:44:17;;;;;;;0.20;0.10;;;;;;;4.37;100.00;101635.25;5031197;28;20456;-54
2022/02/08 00:49:11;;;;;;;0.20;0.10;;;;;;;4.37;100.00;101644.91;5020616;28;20483;-54
2022/02/08 00:54:09;;;;;;;0.20;0.10;;;;;;;4.16;100.00;101637.50;5007353;28;20458;-54
2022/02/08 00:56:36;;;;;;;0.20;0.10;;;;;;;3.89;100.00;101636.97;5021903;28;20535;-53
2022/02/08 00:59:03;;;;;;;0.20;0.10;;;;;;;3.74;100.00;101630.53;5027097;28;20544;-54
2022/02/08 01:01:34;;;;;;;0.20;0.10;;;;;;;3.88;100.00;101633.44;5026106;28;20527;-54
2022/02/08 01:04:01;;;;;;;0.20;0.10;;;;;;;3.93;100.00;101634.41;5020049;28;20536;-53
2022/02/08 01:06:28;;;;;;;0.20;0.10;;;;;;;3.82;100.00;101631.56;5031465;28;20448;-54
2022/02/08 01:09:07;;;;;;;0.20;0.10;;;;;;;3.97;100.00;101635.34;5025663;28;20527;-54
2022/02/08 01:11:33;;;;;;;0.20;0.10;;;;;;;3.97;100.00;101636.25;5026459;28;20925;-54
2022/02/08 01:14:00;;;;;;;0.20;0.10;;;;;;;3.99;100.00;101638.94;5022168;28;20487;-54
2022/02/08 01:16:29;;;;;;;0.20;0.10;;;;;;;4.24;100.00;101642.91;5019900;28;20453;-54
2022/02/08 01:18:57;;;;;;;0.20;0.10;;;;;;;4.27;100.00;101635.09;5024156;28;20559;-54
2022/02/08 01:21:24;;;;;;;0.20;0.10;;;;;;;4.28;100.00;101636.88;5026620;28;20476;-54
2022/02/08 01:23:51;;;;;;;0.87;0.47;;;;;;;4.18;100.00;101624.38;5023297;28;20479;-54
2022/02/08 01:26:19;;;;;;;0.20;0.10;;;;;;;4.31;100.00;101635.16;5019741;28;20494;-53
2022/02/08 01:29:19;;;;;;;0.20;0.10;;;;;;;4.45;100.00;101632.78;5022792;28;20508;-54
2022/02/08 01:31:37;;;;;;;0.20;0.10;;;;;;;4.56;100.00;101631.25;5006986;28;20502;-54
2022/02/08 01:36:50;;;;;;;0.20;0.10;;;;;;;4.70;100.00;101628.84;5027098;28;20473;-55
2022/02/08 01:39:28;;;;;;;0.20;0.10;;;;;;;4.78;100.00;101627.19;5026060;28;20551;-54
2022/02/08 01:44:56;;;;;;;0.87;0.87;;;;;;;4.89;100.00;101630.03;5009988;28;20538;-54
2022/02/08 01:47:28;;;;;;;0.20;0.10;;;;;;;4.95;100.00;101630.13;5019465;28;20546;-53
2022/02/08 01:50:11;;;;;;;0.20;0.10;;;;;;;4.91;100.00;101620.38;5021423;28;20480;-54
2022/02/08 01:52:40;;;;;;;0.20;0.10;;;;;;;4.92;100.00;101620.41;5020007;28;20454;-54
2022/02/08 01:55:10;;;;;;;0.20;0.20;;;;;;;5.01;100.00;101617.94;5019555;28;20540;-54
2022/02/08 01:57:39;;;;;;;5.20;1.13;;;;;;;4.99;100.00;101610.88;5024708;28;20535;-54
2022/02/08 02:00:09;;;;;;;0.20;0.10;;;;;;;5.11;99.67;101602.28;5025856;28;20531;-54
2022/02/08 02:02:35;;;;;;;0.20;0.10;;;;;;;5.03;100.00;101604.78;5022099;28;20475;-53
2022/02/08 02:05:03;;;;;;;0.20;0.10;;;;;;;5.10;99.98;101604.03;5001813;28;20456;-54
2022/02/08 02:07:31;;;;;;;0.20;0.10;;;;;;;5.17;99.74;101604.97;5011186;28;20467;-54
2022/02/08 02:10:02;;;;;;;0.20;0.10;;;;;;;5.08;99.53;101594.31;5019116;28;20821;-54
2022/02/08 02:12:29;;;;;;;0.20;0.10;;;;;;;5.16;99.65;101593.56;5022349;28;20484;-53
2022/02/08 02:14:59;;;;;;;0.20;0.10;;;;;;;5.21;99.44;101597.16;5025715;28;20488;-54
2022/02/08 02:17:26;;;;;;;0.63;0.60;;;;;;;5.15;99.92;101591.78;5023460;28;21014;-54
2022/02/08 02:19:52;;;;;;;0.20;0.10;;;;;;;5.18;100.00;101586.56;5018769;28;20490;-54
2022/02/08 02:22:19;;;;;;;0.20;0.10;;;;;;;5.20;99.75;101595.34;5021492;28;20819;-53
2022/02/08 02:24:47;;;;;;;0.20;0.10;;;;;;;5.26;99.24;101594.59;5025764;28;20903;-54
2022/02/08 02:27:13;;;;;;;0.20;0.20;;;;;;;5.33;99.15;101601.69;5023376;28;21065;-54
2022/02/08 02:29:40;;;;;;;0.20;0.10;;;;;;;5.29;99.19;101598.13;5019385;28;20479;-54
2022/02/08 02:32:09;;;;;;;0.20;0.10;;;;;;;5.29;98.99;101591.97;5032757;28;20488;-53
2022/02/08 02:34:49;;;;;;;0.20;0.10;;;;;;;5.25;100.00;101593.69;5018952;28;20447;-53
2022/02/08 02:37:17;;;;;;;0.20;0.10;;;;;;;5.31;99.40;101588.50;5021958;28;20518;-54
2022/02/08 02:39:45;;;;;;;0.20;0.10;;;;;;;5.56;99.19;101592.34;5024814;28;20453;-54
2022/02/08 02:42:12;;;;;;;0.20;0.10;;;;;;;5.61;98.07;101595.91;5025926;28;20472;-54
2022/02/08 02:44:40;;;;;;;0.20;0.10;;;;;;;5.45;98.40;101598.34;5019886;28;20542;-54
2022/02/08 02:47:06;;;;;;;0.20;0.10;;;;;;;5.41;98.95;101591.28;5018493;28;20560;-54
2022/02/08 02:49:34;;;;;;;0.20;0.10;;;;;;;5.44;99.14;101601.84;5006970;28;20480;-54
2022/02/08 02:52:01;;;;;;;0.20;0.10;;;;;;;5.49;97.84;101600.19;5025252;28;20935;-54
2022/02/08 02:54:27;;;;;;;0.20;0.10;;;;;;;5.48;98.17;101598.38;5020350;28;20506;-54
2022/02/08 02:56:59;;;;;;;0.20;0.10;;;;;;;5.58;97.72;101601.16;5018962;28;20472;-54
2022/02/08 02:59:29;;;;;;;0.20;0.10;;;;;;;5.37;98.98;101603.53;5022858;28;20491;-54
2022/02/08 03:20:35;;;;;;;0.20;0.20;;;;;;;5.65;100.00;101588.94;5021118;28;21020;-54
2022/02/08 03:23:03;;;;;;;0.20;0.10;;;;;;;5.67;99.99;101592.50;5018485;28;20488;-54
2022/02/08 03:25:30;;;;;;;0.20;0.10;;;;;;;5.68;99.95;101593.38;5022029;28;20503;-54
2022/02/08 03:27:57;;;;;;;0.20;0.20;;;;;;;5.65;100.00;101594.22;5025034;28;20510;-54
2022/02/08 03:30:24;;;;;;;0.20;0.10;;;;;;;5.64;99.74;101590.72;5022538;28;20479;-54
2022/02/08 03:32:50;;;;;;;0.20;0.10;;;;;;;5.65;99.95;101594.22;5030098;28;20897;-54
2022/02/08 03:35:17;;;;;;;0.20;0.10;;;;;;;5.73;99.61;101592.56;5026166;28;20543;-53
2022/02/08 03:37:53;;;;;;;0.20;0.10;;;;;;;5.80;99.02;101585.63;5025040;28;20510;-54
2022/02/08 03:40:36;;;;;;;0.20;0.20;;;;;;;5.85;99.62;101590.06;5022576;28;20480;-54
2022/02/08 03:43:15;;;;;;;0.20;0.10;;;;;;;6.03;98.25;101605.28;5023515;28;20448;-54
2022/02/08 03:45:48;;;;;;;0.20;0.10;;;;;;;5.82;98.28;101590.03;5021770;28;20501;-54
2022/02/08 03:48:18;;;;;;;0.20;0.10;;;;;;;5.74;99.79;101596.06;5024214;28;20553;-54
2022/02/08 03:50:50;;;;;;;0.20;0.10;;;;;;;5.67;99.77;101586.34;5028248;28;20567;-54
2022/02/08 03:53:19;;;;;;;0.53;0.53;;;;;;;5.74;99.73;101580.25;5027369;28;20487;-54
2022/02/08 03:55:46;;;;;;;0.33;0.30;;;;;;;5.80;99.23;101578.59;5021633;28;20487;-54
2022/02/08 03:58:13;;;;;;;0.20;0.10;;;;;;;5.88;98.48;101592.72;5004687;28;20473;-54
2022/02/08 04:03:24;;;;;;;0.20;0.20;;;;;;;5.90;99.11;101595.44;5027886;28;20877;-54
2022/02/08 04:05:53;;;;;;;0.40;0.40;;;;;;;5.76;100.00;101591.72;5006476;28;20968;-54
2022/02/08 04:08:20;;;;;;;0.20;0.10;;;;;;;5.77;100.00;101593.50;5031849;28;20499;-55
2022/02/08 04:10:47;;;;;;;0.20;0.10;;;;;;;5.81;99.91;101587.38;5024349;28;20526;-54
2022/02/08 04:45:42;;;;;;;0.20;0.10;;;;;;;5.95;99.02;101599.00;5020575;28;20476;-54
2022/02/08 04:48:23;;;;;;;0.20;0.10;;;;;;;5.96;98.98;101595.50;5023955;28;20556;-55
2022/02/08 04:50:55;;;;;;;0.40;0.40;;;;;;;6.06;99.04;101591.22;5027276;28;20495;-55
2022/02/08 04:53:31;;;;;;;0.20;0.20;;;;;;;6.04;99.40;101593.84;5026968;28;20486;-55
2022/02/08 04:56:20;;;;;;;0.20;0.20;;;;;;;6.22;99.40;101601.97;5009833;28;20538;-55
2022/02/08 05:45:31;;;;;;;0.20;0.10;;;;;;;6.37;99.89;101582.72;5024621;28;20501;-55
2022/02/08 05:47:56;;;;;;;0.20;0.10;;;;;;;6.41;100.00;101584.53;5024600;28;20526;-55
2022/02/08 05:55:30;;;;;;;0.20;0.17;;;;;;;6.38;100.00;101578.34;5018809;28;20889;-55
2022/02/08 05:57:57;;;;;;;0.37;0.37;;;;;;;6.40;100.00;101579.22;5021668;28;20534;-55
2022/02/08 06:00:26;;;;;;;1.00;0.83;;;;;;;6.15;100.00;101576.34;5025849;28;20988;-55
2022/02/08 06:03:00;;;;;;;0.20;0.10;;;;;;;6.11;100.00;101587.75;5024114;28;21014;-55
2022/02/08 06:05:26;;;;;;;0.20;0.10;;;;;;;6.20;100.00;101582.56;5019069;28;20514;-55
2022/02/08 06:07:53;;;;;;;0.20;0.10;;;;;;;6.33;100.00;101582.69;5032306;28;20506;-55
2022/02/08 06:10:19;;;;;;;0.20;0.10;;;;;;;6.28;100.00;101582.63;5019078;28;20487;-55
2022/02/08 06:12:50;;;;;;;0.20;0.13;;;;;;;6.29;100.00;101589.69;5019353;28;20609;-55
2022/02/08 06:15:20;;;;;;;0.20;0.10;;;;;;;6.36;100.00;101593.28;5019633;28;20479;-55
2022/02/08 06:17:51;;;;;;;0.20;0.20;;;;;;;6.23;100.00;101593.16;5001339;28;20472;-55
2022/02/08 06:20:18;;;;;;;0.20;0.10;;;;;;;6.29;100.00;101591.44;5024187;28;20896;-55
2022/02/08 06:22:45;;;;;;;0.20;0.10;;;;;;;6.40;100.00;101581.88;5025555;28;20539;-55
2022/02/08 06:25:15;;;;;;;0.20;0.10;;;;;;;6.38;100.00;101588.91;5020926;28;20888;-55
2022/02/08 06:27:43;;;;;;;0.20;0.17;;;;;;;6.60;100.00;101585.59;5018810;28;20504;-55
2022/02/08 06:30:10;;;;;;;0.20;0.10;;;;;;;6.70;100.00;101586.53;5020163;28;20543;-55
2022/02/08 06:32:37;;;;;;;0.20;0.10;;;;;;;6.63;100.00;101572.41;5025460;28;20582;-56
2022/02/08 06:35:10;;;;;;;0.20;0.10;;;;;;;6.82;100.00;101574.31;5021288;28;20494;-55
2022/02/08 06:37:39;;;;;;;0.50;0.50;;;;;;;6.91;100.00;101581.41;5015664;28;20554;-55
2022/02/08 06:40:07;;;;;;;0.20;0.10;;;;;;;6.85;100.00;101591.94;5022016;28;20886;-55
2022/02/08 06:42:34;;;;;;;0.20;0.10;;;;;;;6.58;100.00;101594.34;5025302;28;20654;-55
2022/02/08 06:45:02;;;;;;;0.20;0.20;;;;;;;6.72;100.00;101605.94;5022579;28;20495;-55
2022/02/08 06:47:31;;;;;;;0.20;0.10;;;;;;;6.63;100.00;101588.25;5018826;28;20537;-55
2022/02/08 06:49:58;;;;;;;0.20;0.20;;;;;;;6.57;100.00;101600.50;5020630;28;20491;-55
2022/02/08 06:52:26;;;;;;;0.20;0.10;;;;;;;6.54;100.00;101585.53;5025581;28;20558;-55
2022/02/08 06:54:53;;;;;;;0.20;0.10;;;;;;;6.53;100.00;101600.47;5024608;28;20456;-55
2022/02/08 06:57:19;;;;;;;0.20;0.10;;;;;;;6.45;100.00;101601.31;5000533;28;20918;-55
2022/02/08 06:59:51;;;;;;;0.20;0.10;;;;;;;6.51;100.00;101604.88;5024488;28;20493;-55
2022/02/08 07:02:18;;;;;;;0.20;0.10;;;;;;;6.65;100.00;101612.03;5018682;28;20482;-55
2022/02/08 07:04:45;;;;;;;0.20;0.10;;;;;;;6.61;100.00;101610.25;5019057;28;20476;-55
2022/02/08 07:07:15;;;;;;;0.20;0.20;;;;;;;6.71;100.00;101612.06;5024767;28;20559;-55
2022/02/08 07:09:43;;;;;;;0.20;0.10;;;;;;;6.62;100.00;101612.03;5016435;28;20870;-55
2022/02/08 07:12:10;;;;;;;0.20;0.10;;;;;;;6.77;100.00;101607.75;5003031;28;20568;-55
2022/02/08 07:14:38;;;;;;;0.20;0.10;;;;;;;6.72;100.00;101620.03;5011233;28;20506;-55
2022/02/08 07:17:05;;;;;;;0.20;0.20;;;;;;;6.75;100.00;101622.72;5028151;28;20555;-55
2022/02/08 07:19:31;;;;;;;0.20;0.10;;;;;;;6.81;100.00;101621.84;5017052;28;20531;-55
2022/02/08 07:21:58;;;;;;;0.20;0.10;;;;;;;6.81;100.00;101627.16;5027545;28;20473;-55
2022/02/08 07:24:24;;;;;;;0.20;0.10;;;;;;;6.75;100.00;101628.00;5028765;28;20506;-55
2022/02/08 07:26:51;;;;;;;0.20;0.20;;;;;;;6.86;100.00;101630.72;5023865;28;20510;-55
2022/02/08 07:29:18;;;;;;;0.20;0.10;;;;;;;6.54;100.00;101627.78;5020246;28;20902;-55
2022/02/08 07:31:55;;;;;;;0.20;0.10;;;;;;;6.80;100.00;101625.38;5023737;28;20993;-55
2022/02/08 07:34:29;;;;;;;0.50;0.50;;;;;;;6.70;100.00;101618.22;5005754;28;20531;-55
2022/02/08 07:39:46;;;;;;;0.20;0.20;;;;;;;6.70;100.00;101629.69;5020552;28;20497;-55
2022/02/08 07:42:12;;;;;;;0.20;0.10;;;;;;;6.70;100.00;101629.69;5021045;28;20464;-55
2022/02/08 07:44:39;;;;;;;0.20;0.10;;;;;;;6.85;100.00;101636.84;5023529;28;20538;-55
2022/02/08 07:47:05;;;;;;;0.20;0.10;;;;;;;6.95;100.00;101633.44;5019990;28;20557;-55
2022/02/08 07:49:33;;;;;;;0.20;0.20;;;;;;;6.95;100.00;101637.81;5023595;28;20448;-55
2022/02/08 07:52:00;;;;;;;0.20;0.10;;;;;;;6.99;100.00;101642.25;5032461;28;20491;-55
2022/02/08 07:54:26;;;;;;;0.20;0.20;;;;;;;7.12;100.00;101639.72;5015187;28;20897;-55
2022/02/08 07:56:53;;;;;;;0.20;0.10;;;;;;;7.15;100.00;101641.53;5028391;28;20907;-55
2022/02/08 07:59:19;;;;;;;0.20;0.10;;;;;;;7.00;100.00;101641.41;5023843;28;20475;-55
2022/02/08 08:01:46;;;;;;;0.20;0.10;;;;;;;6.81;100.00;101648.28;5021216;28;20556;-55
2022/02/08 08:04:13;;;;;;;0.20;0.10;;;;;;;6.77;100.00;101644.75;5026206;28;20448;-55
2022/02/08 08:06:39;;;;;;;0.20;0.10;;;;;;;6.91;100.00;101643.97;5030480;28;20567;-55
2022/02/08 08:09:06;;;;;;;0.20;0.10;;;;;;;6.97;100.00;101644.00;5025588;28;20608;-55
2022/02/08 08:11:37;;;;;;;0.20;0.10;;;;;;;6.91;100.00;101646.63;5028168;28;20479;-55
2022/02/08 08:14:06;;;;;;;0.20;0.20;;;;;;;6.86;100.00;101645.69;5024575;28;20479;-55
2022/02/08 08:19:19;;;;;;;0.67;0.67;;;;;;;7.07;100.00;101643.22;5023325;28;20452;-55
2022/02/08 08:21:47;;;;;;;0.20;0.10;;;;;;;7.01;100.00;101643.19;5008345;28;20506;-55
2022/02/08 08:24:15;;;;;;;0.20;0.10;;;;;;;7.24;100.00;101641.56;5021020;28;21015;-55
2022/02/08 08:26:42;;;;;;;0.20;0.10;;;;;;;7.23;100.00;101641.56;5026725;28;20483;-55
2022/02/08 08:29:09;;;;;;;0.27;0.20;;;;;;;7.07;100.00;101648.50;5024709;28;20475;-55
2022/02/08 08:31:35;;;;;;;0.40;0.40;;;;;;;7.27;100.00;101654.84;5034198;28;20501;-55
2022/02/08 08:34:07;;;;;;;0.20;0.13;;;;;;;7.09;100.00;101655.56;5020569;28;20445;-55
2022/02/08 08:36:33;;;;;;;0.20;0.10;;;;;;;7.29;100.00;101655.72;5029619;28;20522;-55
2022/02/08 08:39:01;;;;;;;0.20;0.13;;;;;;;7.34;100.00;101648.69;5027243;28;20494;-56
2022/02/08 08:41:45;;;;;;;0.20;0.10;;;;;;;7.34;100.00;101646.06;5023226;28;20957;-55
2022/02/08 08:51:57;;;;;;;0.30;0.20;;;;;;;7.22;100.00;101635.38;5020277;28;20449;-55
2022/02/08 08:54:27;;;;;;;0.20;0.20;;;;;;;7.41;100.00;101629.34;5024949;28;20457;-55
2022/02/08 08:56:54;;;;;;;0.20;0.20;;;;;;;7.26;100.00;101628.34;5027028;28;20467;-55
2022/02/08 08:59:21;;;;;;;0.20;0.10;;;;;;;7.41;100.00;101629.34;5022957;28;20458;-55
2022/02/08 09:01:49;;;;;;;0.20;0.17;;;;;;;7.46;100.00;101632.03;5020197;28;20503;-56
2022/02/08 09:04:18;;;;;;;0.20;0.10;;;;;;;7.32;100.00;101642.50;5024570;28;20448;-56
2022/02/08 09:06:48;;;;;;;0.20;0.10;;;;;;;7.40;100.00;101638.19;5024444;28;20460;-55
2022/02/08 09:09:18;;;;;;;0.20;0.20;;;;;;;7.16;100.00;101645.94;5024007;28;20458;-55
2022/02/08 09:15:42;;;;;;;0.20;0.10;;;;;;;7.61;100.00;101645.34;5019884;28;20449;-56
2022/02/08 09:25:48;;;;;;;0.20;0.10;;;;;;;7.73;100.00;101628.63;5024568;28;20479;-56
2022/02/08 09:30:58;;;;;;;0.20;0.10;;;;;;;7.87;100.00;101624.28;5013652;28;20515;-55
2022/02/08 09:33:24;;;;;;;0.20;0.20;;;;;;;7.79;100.00;101627.75;5024577;28;21100;-55
2022/02/08 09:35:51;;;;;;;0.30;0.20;;;;;;;7.81;100.00;101632.22;5028459;28;20452;-55
2022/02/08 09:38:19;;;;;;;0.20;0.20;;;;;;;8.06;100.00;101625.22;5023104;28;20479;-56
2022/02/08 09:40:47;;;;;;;0.20;0.10;;;;;;;7.93;100.00;101628.69;5002283;28;20934;-55
2022/02/08 09:43:15;;;;;;;0.20;0.10;;;;;;;8.10;100.00;101628.78;5023863;28;20867;-55
2022/02/08 09:45:46;;;;;;;0.20;0.10;;;;;;;8.03;100.00;101636.69;5026436;28;20798;-56
2022/02/08 09:48:28;;;;;;;3.60;2.20;;;;;;;7.95;100.00;101634.91;5023542;28;20916;-55
2022/02/08 09:50:56;;;;;;;0.27;0.20;;;;;;;8.02;100.00;101649.94;5001981;28;20452;-55
2022/02/08 09:53:30;;;;;;;0.20;0.10;;;;;;;8.04;100.00;101645.53;5020158;28;20516;-55
2022/02/08 09:55:58;;;;;;;0.20;0.20;;;;;;;8.14;100.00;101638.50;5025458;28;20456;-55
2022/02/08 09:58:24;;;;;;;0.50;0.50;;;;;;;8.31;100.00;101650.91;5025979;28;20482;-55
2022/02/08 10:01:06;;;;;;;0.20;0.10;;;;;;;8.20;100.00;101657.94;5020910;28;20478;-55
2022/02/08 10:03:33;;;;;;;0.20;0.20;;;;;;;8.24;100.00;101664.16;5019176;28;20868;-55
2022/02/08 10:05:59;;;;;;;0.20;0.10;;;;;;;8.08;100.00;101652.59;5030242;28;20456;-55
2022/02/08 10:08:29;;;;;;;0.20;0.10;;;;;;;8.15;100.00;101666.75;5028750;28;20507;-55
2022/02/08 10:10:56;;;;;;;0.20;0.10;;;;;;;8.18;100.00;101664.09;5023524;28;20799;-55
2022/02/08 10:24:10;;;;;;;0.20;0.10;;;;;;;8.56;100.00;101661.59;5020108;28;20916;-55
2022/02/08 10:32:01;;;;;;;0.20;0.20;;;;;;;8.67;100.00;101669.56;5022042;28;20455;-55
2022/02/08 10:40:05;;;;;;;0.20;0.10;;;;;;;8.80;100.00;101663.41;5022867;28;20522;-55
2022/02/08 10:42:33;;;;;;;0.30;0.20;;;;;;;8.63;100.00;101671.31;5029327;28;20445;-55
2022/02/08 10:45:01;;;;;;;0.20;0.20;;;;;;;8.48;100.00;101664.22;5027160;28;20509;-55
2022/02/08 10:47:33;;;;;;;0.20;0.10;;;;;;;8.71;100.00;101658.09;5022521;28;20472;-55
2022/02/08 10:50:03;;;;;;;0.20;0.10;;;;;;;8.66;100.00;101663.38;5024735;28;20445;-55
2022/02/08 10:52:30;;;;;;;0.20;0.20;;;;;;;8.77;100.00;101655.41;5029179;28;20882;-55
2022/02/08 10:55:04;;;;;;;0.20;0.10;;;;;;;8.80;100.00;101658.09;5029484;28;20834;-55
2022/02/08 10:57:42;;;;;;;0.20;0.20;;;;;;;8.55;100.00;101657.19;5028507;28;20518;-55
2022/02/08 11:00:10;;;;;;;0.20;0.10;;;;;;;8.84;100.00;101667.81;5029464;28;20506;-55
2022/02/08 11:02:43;;;;;;;0.30;0.20;;;;;;;8.82;100.00;101662.50;5025089;28;20451;-55
2022/02/08 11:05:37;;;;;;;0.30;0.20;;;;;;;8.86;100.00;101648.38;5022483;28;20447;-55
2022/02/08 11:11:22;;;;;;;0.20;0.20;;;;;;;8.93;100.00;101643.97;5026169;28;20919;-55
2022/02/08 11:14:08;;;;;;;0.40;0.40;;;;;;;8.77;100.00;101645.75;5012227;28;20486;-55
2022/02/08 11:19:38;;;;;;;0.30;0.20;;;;;;;8.74;100.00;101653.66;5022280;28;20483;-56
2022/02/08 11:22:23;;;;;;;0.20;0.20;;;;;;;8.85;100.00;101646.59;5026328;28;20526;-55
2022/02/08 11:24:56;;;;;;;0.30;0.20;;;;;;;8.77;100.00;101647.47;5028659;28;20511;-55
2022/02/08 11:27:23;;;;;;;0.20;0.20;;;;;;;8.75;100.00;101654.53;5028596;28;20463;-55
2022/02/08 11:29:54;;;;;;;0.30;0.20;;;;;;;8.88;100.00;101646.59;5015667;28;21165;-55
2022/02/08 11:32:37;;;;;;;0.30;0.20;;;;;;;8.87;100.00;101646.59;5028681;28;20945;-55
2022/02/08 11:54:36;;;;;;;0.30;0.20;;;;;;;8.94;100.00;101628.94;5018013;28;20483;-55
2022/02/08 12:00:14;;;;;;;0.30;0.20;;;;;;;9.07;100.00;101626.28;5022238;28;20460;-55
2022/02/08 12:02:49;;;;;;;0.30;0.20;;;;;;;8.99;100.00;101632.47;5024308;28;20953;-56
2022/02/08 12:07:54;;;;;;;0.30;0.10;;;;;;;9.17;100.00;101611.22;5034622;28;20468;-55
2022/02/08 12:10:43;;;;;;;0.30;0.20;;;;;;;9.26;100.00;101608.56;5021231;28;20517;-55
2022/02/08 13:01:00;;;;;;;0.30;0.20;;;;;;;9.14;100.00;101588.22;5046733;28;20452;-51
2022/02/08 13:14:16;;;;;;;0.30;0.20;;;;;;;9.29;100.00;101589.09;5024244;28;20473;-50
2022/02/08 14:01:43;;;;;;;0.30;0.20;;;;;;;9.46;100.00;101568.72;5032555;28;20534;-50
2022/02/08 14:09:41;;;;;;;5.90;2.73;;;;;;;9.34;100.00;101563.44;5032526;28;20839;-50
2022/02/08 14:15:24;;;;;;;0.30;0.20;;;;;;;9.29;100.00;101567.84;5032036;28;20995;-50
2022/02/08 14:25:31;;;;;;;0.30;0.20;;;;;;;9.31;100.00;101572.28;5011009;28;20475;-50
2022/02/08 14:30:57;;;;;;;0.30;0.20;;;;;;;9.17;100.00;101571.41;5015413;28;20475;-51
2022/02/08 14:33:49;;;;;;;0.30;0.20;;;;;;;9.14;100.00;101571.44;5010227;28;20488;-50
2022/02/08 15:09:25;;;;;;;0.30;0.20;;;;;;;9.06;100.00;101570.59;5031854;28;20451;-50
2022/02/08 15:12:16;;;;;;;0.30;0.20;;;;;;;9.14;100.00;101577.63;5031593;28;20794;-50
2022/02/08 15:14:59;;;;;;;0.20;0.20;;;;;;;9.03;100.00;101578.53;5031668;28;20558;-50
2022/02/08 15:17:25;;;;;;;0.20;0.10;;;;;;;9.15;100.00;101582.03;5031776;28;20447;-50
2022/02/08 15:19:54;;;;;;;0.20;0.20;;;;;;;9.06;100.00;101595.34;5031541;28;20474;-51
2022/02/08 15:22:20;;;;;;;0.30;0.20;;;;;;;9.05;100.00;101588.28;5031647;28;20525;-50
2022/02/08 15:24:47;;;;;;;0.20;0.13;;;;;;;9.12;100.00;101584.69;5031844;28;20871;-50
2022/02/08 15:27:15;;;;;;;0.20;0.20;;;;;;;9.11;100.00;101580.28;5032247;28;20448;-50
2022/02/08 15:29:43;;;;;;;0.30;0.10;;;;;;;9.21;100.00;101589.13;5027025;28;20494;-50
2022/02/08 15:32:15;;;;;;;0.30;0.20;;;;;;;9.26;100.00;101582.03;5009951;28;20452;-50
2022/02/08 15:34:43;;;;;;;0.20;0.20;;;;;;;9.17;100.00;101582.91;5035020;28;20490;-50
2022/02/08 15:37:11;;;;;;;0.30;0.20;;;;;;;9.22;100.00;101595.31;5021528;28;20449;-51
2022/02/08 15:39:38;;;;;;;0.30;0.20;;;;;;;9.22;100.00;101587.34;5034960;28;20444;-51
2022/02/08 15:42:05;;;;;;;0.30;0.20;;;;;;;9.29;100.00;101583.78;5035345;28;20521;-50
2022/02/08 15:44:32;;;;;;;0.30;0.20;;;;;;;9.29;100.00;101587.31;5035122;28;20514;-50
2022/02/08 15:47:04;;;;;;;0.27;0.20;;;;;;;9.37;100.00;101589.97;5034861;28;20554;-51
2022/02/08 15:49:33;;;;;;;0.30;0.20;;;;;;;9.29;100.00;101592.63;5034928;28;20447;-51
2022/02/08 15:52:15;;;;;;;0.20;0.20;;;;;;;9.27;100.00;101589.09;5035018;28;20455;-51
2022/02/08 15:54:46;;;;;;;0.30;0.20;;;;;;;9.25;100.00;101582.91;5034989;28;20523;-51
2022/02/08 16:00:21;;;;;;;0.30;0.20;;;;;;;9.38;100.00;101586.41;5034724;28;20975;-51
2022/02/08 16:08:31;;;;;;;0.30;0.20;;;;;;;9.42;100.00;101582.88;5030415;28;20510;-50
2022/02/08 16:13:53;;;;;;;0.30;0.20;;;;;;;9.28;100.00;101585.56;5034411;28;20498;-50
2022/02/08 16:59:05;;;;;;;0.30;0.20;;;;;;;8.96;100.00;101584.75;5033818;28;20447;-49
2022/02/08 17:01:33;;;;;;;0.30;0.20;;;;;;;9.06;100.00;101590.03;5033568;28;20521;-51
2022/02/08 17:03:59;;;;;;;0.20;0.10;;;;;;;9.00;100.00;101584.72;5033619;28;20479;-50
2022/02/08 17:06:27;;;;;;;0.30;0.20;;;;;;;9.09;100.00;101578.53;5022485;28;20487;-51
2022/02/08 17:09:18;;;;;;;0.20;0.20;;;;;;;9.04;100.00;101583.81;5033775;28;20460;-50
2022/02/08 17:11:47;;;;;;;0.20;0.20;;;;;;;9.04;100.00;101591.78;5033364;28;21086;-51
2022/02/08 17:14:48;;;;;;;0.20;0.20;;;;;;;8.96;100.00;101592.69;5033279;28;20534;-50
2022/02/08 17:18:14;;;;;;;0.30;0.17;;;;;;;8.92;100.00;101585.63;5011897;28;20495;-50
2022/02/08 17:45:25;;;;;;;0.30;0.20;;;;;;;9.13;100.00;101597.09;5033152;28;20448;-50
2022/02/08 17:47:52;;;;;;;0.30;0.20;;;;;;;9.14;100.00;101606.81;5033216;28;20509;-51
2022/02/08 17:50:20;;;;;;;0.30;0.10;;;;;;;9.05;100.00;101609.50;5014385;28;20448;-51
2022/02/08 17:52:47;;;;;;;0.30;0.20;;;;;;;9.12;100.00;101603.28;5032632;28;20964;-50
2022/02/08 17:55:16;;;;;;;0.30;0.20;;;;;;;9.28;100.00;101608.56;5015079;28;20557;-51
2022/02/08 17:57:43;;;;;;;0.30;0.10;;;;;;;9.32;100.00;101612.94;5032584;28;20933;-51
2022/02/08 18:00:13;;;;;;;0.20;0.10;;;;;;;9.28;100.00;101611.19;5032566;28;20510;-51
2022/02/08 18:02:43;;;;;;;0.30;0.10;;;;;;;9.18;100.00;101600.63;5032543;28;20513;-51
2022/02/08 18:05:11;;;;;;;0.30;0.13;;;;;;;9.25;100.00;101603.25;5031524;28;20884;-51
2022/02/08 18:07:38;;;;;;;0.30;0.17;;;;;;;9.11;100.00;101606.81;5023347;28;20475;-50
2022/02/08 18:10:06;;;;;;;0.30;0.20;;;;;;;9.18;100.00;101603.28;5032930;28;20517;-50
2022/02/08 18:12:34;;;;;;;0.30;0.20;;;;;;;9.13;100.00;101598.84;5021879;28;20452;-51
2022/02/08 18:15:05;;;;;;;0.20;0.20;;;;;;;9.09;100.00;101600.63;5030201;28;20593;-50
2022/02/08 18:17:37;;;;;;;0.30;0.20;;;;;;;9.08;100.00;101606.81;5032653;28;21003;-50
2022/02/08 18:57:00;;;;;;;0.30;0.20;;;;;;;9.47;100.00;101631.53;4995567;28;20512;-51
2022/02/08 19:06:35;;;;;;;0.30;0.20;;;;;;;9.27;100.00;101625.34;5035383;28;20444;-51
2022/02/08 19:08:08;;;;;;;0.30;0.20;;;;;;;9.35;100.00;101631.53;5020102;28;20794;-51
2022/02/08 19:23:33;;;;;;;0.30;0.20;;;;;;;9.23;100.00;101629.78;5027892;28;20458;-51
2022/02/08 19:26:01;;;;;;;0.30;0.10;;;;;;;9.24;100.00;101628.91;5029969;28;20900;-51
2022/02/08 19:28:27;;;;;;;0.30;0.20;;;;;;;9.49;100.00;101627.09;5035543;28;21006;-52
2022/02/08 19:30:54;;;;;;;0.30;0.20;;;;;;;9.31;100.00;101629.75;5018611;28;20503;-51
2022/02/08 19:33:22;;;;;;;0.30;0.20;;;;;;;9.33;100.00;101630.66;5035636;28;20456;-51
2022/02/08 19:35:49;;;;;;;0.30;0.20;;;;;;;9.41;100.00;101643.00;5030925;28;20492;-51
2022/02/08 19:38:17;;;;;;;0.30;0.20;;;;;;;9.29;100.00;101639.50;5026010;28;20486;-51
2022/02/08 19:40:44;;;;;;;0.30;0.20;;;;;;;9.35;100.00;101632.44;5035118;28;20825;-51
2022/02/08 19:43:11;;;;;;;0.30;0.20;;;;;;;9.26;100.00;101635.09;5035626;28;20455;-52
2022/02/08 19:45:44;;;;;;;0.30;0.20;;;;;;;9.25;100.00;101637.75;5035179;28;20468;-51
2022/02/08 19:48:11;;;;;;;0.30;0.20;;;;;;;9.28;100.00;101635.09;5035254;28;20963;-51